sensor_id;sensor_type;location;lat;lon;timestamp;P1;durP1;ratioP1;P2;durP2;ratioP2
80272;SDS011;69574;45.328;9.598;2024-03-08T00:01:54;26.40;;;14.07;;
80272;SDS011;69574;45.328;9.598;2024-03-08T00:04:20;23.50;;;14.45;;
80272;SDS011;69574;45.328;9.598;2024-03-08T00:06:45;21.92;;;13.43;;
80272;SDS011;69574;45.328;9.598;2024-03-08T00:09:11;23.98;;;13.80;;
80272;SDS011;69574;45.328;9.598;2024-03-08T00:11:37;23.33;;;14.00;;
80272;SDS011;69574;45.328;9.598;2024-03-08T00:14:03;25.90;;;14.30;;
80272;SDS011;69574;45.328;9.598;2024-03-08T00:16:32;22.85;;;13.07;;
80272;SDS011;69574;45.328;9.598;2024-03-08T00:18:59;24.48;;;13.30;;
80272;SDS011;69574;45.328;9.598;2024-03-08T00:21:25;21.15;;;13.32;;
80272;SDS011;69574;45.328;9.598;2024-03-08T00:23:52;25.60;;;14.27;;
80272;SDS011;69574;45.328;9.598;2024-03-08T00:26:19;21.80;;;12.88;;
80272;SDS011;69574;45.328;9.598;2024-03-08T00:28:45;19.00;;;11.98;;
80272;SDS011;69574;45.328;9.598;2024-03-08T00:31:11;22.67;;;13.73;;
80272;SDS011;69574;45.328;9.598;2024-03-08T00:33:36;21.52;;;12.10;;
80272;SDS011;69574;45.328;9.598;2024-03-08T00:36:04;25.08;;;12.82;;
80272;SDS011;69574;45.328;9.598;2024-03-08T00:38:30;22.17;;;12.95;;
80272;SDS011;69574;45.328;9.598;2024-03-08T00:40:57;23.38;;;11.70;;
80272;SDS011;69574;45.328;9.598;2024-03-08T00:43:22;19.58;;;12.05;;
80272;SDS011;69574;45.328;9.598;2024-03-08T00:45:48;18.88;;;11.13;;
80272;SDS011;69574;45.328;9.598;2024-03-08T00:48:14;18.65;;;12.05;;
80272;SDS011;69574;45.328;9.598;2024-03-08T00:50:40;19.98;;;11.63;;
80272;SDS011;69574;45.328;9.598;2024-03-08T00:53:07;18.33;;;11.32;;
80272;SDS011;69574;45.328;9.598;2024-03-08T00:55:33;21.17;;;11.38;;
80272;SDS011;69574;45.328;9.598;2024-03-08T00:57:59;16.58;;;10.55;;
80272;SDS011;69574;45.328;9.598;2024-03-08T01:00:25;20.25;;;10.90;;
80272;SDS011;69574;45.328;9.598;2024-03-08T01:02:51;21.70;;;11.07;;
80272;SDS011;69574;45.328;9.598;2024-03-08T01:05:17;17.05;;;10.18;;
80272;SDS011;69574;45.328;9.598;2024-03-08T01:07:42;17.02;;;10.45;;
80272;SDS011;69574;45.328;9.598;2024-03-08T01:10:13;20.95;;;10.43;;
80272;SDS011;69574;45.328;9.598;2024-03-08T01:12:39;19.92;;;10.00;;
80272;SDS011;69574;45.328;9.598;2024-03-08T01:15:05;18.90;;;11.68;;
80272;SDS011;69574;45.328;9.598;2024-03-08T01:17:31;18.55;;;10.35;;
80272;SDS011;69574;45.328;9.598;2024-03-08T01:19:56;20.65;;;11.32;;
80272;SDS011;69574;45.328;9.598;2024-03-08T01:22:23;21.52;;;11.70;;
80272;SDS011;69574;45.328;9.598;2024-03-08T01:24:49;19.02;;;11.52;;
80272;SDS011;69574;45.328;9.598;2024-03-08T01:27:17;20.23;;;11.55;;
80272;SDS011;69574;45.328;9.598;2024-03-08T01:29:42;22.52;;;13.38;;
80272;SDS011;69574;45.328;9.598;2024-03-08T01:32:08;20.02;;;11.73;;
80272;SDS011;69574;45.328;9.598;2024-03-08T01:34:34;23.75;;;12.80;;
80272;SDS011;69574;45.328;9.598;2024-03-08T01:36:59;24.08;;;12.57;;
80272;SDS011;69574;45.328;9.598;2024-03-08T01:39:26;29.05;;;14.60;;
80272;SDS011;69574;45.328;9.598;2024-03-08T01:41:52;25.48;;;14.27;;
80272;SDS011;69574;45.328;9.598;2024-03-08T01:44:20;24.20;;;13.55;;
80272;SDS011;69574;45.328;9.598;2024-03-08T01:46:46;24.23;;;13.88;;
80272;SDS011;69574;45.328;9.598;2024-03-08T01:49:13;23.23;;;14.05;;
80272;SDS011;69574;45.328;9.598;2024-03-08T01:51:39;23.52;;;13.85;;
80272;SDS011;69574;45.328;9.598;2024-03-08T01:54:05;25.63;;;14.32;;
80272;SDS011;69574;45.328;9.598;2024-03-08T01:56:31;27.08;;;15.40;;
80272;SDS011;69574;45.328;9.598;2024-03-08T01:58:57;25.45;;;14.75;;
80272;SDS011;69574;45.328;9.598;2024-03-08T02:01:25;25.80;;;15.77;;
80272;SDS011;69574;45.328;9.598;2024-03-08T02:03:51;28.30;;;16.17;;
80272;SDS011;69574;45.328;9.598;2024-03-08T02:06:34;27.92;;;15.75;;
80272;SDS011;69574;45.328;9.598;2024-03-08T02:09:00;24.08;;;15.00;;
80272;SDS011;69574;45.328;9.598;2024-03-08T02:11:31;25.65;;;15.27;;
80272;SDS011;69574;45.328;9.598;2024-03-08T02:13:57;27.45;;;14.43;;
80272;SDS011;69574;45.328;9.598;2024-03-08T02:16:25;25.90;;;14.82;;
80272;SDS011;69574;45.328;9.598;2024-03-08T02:18:50;26.27;;;15.90;;
80272;SDS011;69574;45.328;9.598;2024-03-08T02:21:18;27.73;;;15.50;;
80272;SDS011;69574;45.328;9.598;2024-03-08T02:23:44;25.58;;;14.70;;
80272;SDS011;69574;45.328;9.598;2024-03-08T02:26:10;25.10;;;14.63;;
80272;SDS011;69574;45.328;9.598;2024-03-08T02:28:35;25.85;;;15.05;;
80272;SDS011;69574;45.328;9.598;2024-03-08T02:31:01;25.80;;;14.52;;
80272;SDS011;69574;45.328;9.598;2024-03-08T02:33:27;26.30;;;15.00;;
80272;SDS011;69574;45.328;9.598;2024-03-08T02:35:54;25.38;;;14.00;;
80272;SDS011;69574;45.328;9.598;2024-03-08T02:38:22;25.80;;;14.30;;
80272;SDS011;69574;45.328;9.598;2024-03-08T02:40:50;25.98;;;14.82;;
80272;SDS011;69574;45.328;9.598;2024-03-08T02:43:16;27.67;;;14.63;;
80272;SDS011;69574;45.328;9.598;2024-03-08T02:45:45;26.73;;;15.10;;
80272;SDS011;69574;45.328;9.598;2024-03-08T02:48:11;27.10;;;15.25;;
80272;SDS011;69574;45.328;9.598;2024-03-08T02:50:37;23.90;;;14.60;;
80272;SDS011;69574;45.328;9.598;2024-03-08T02:53:05;26.60;;;14.77;;
80272;SDS011;69574;45.328;9.598;2024-03-08T02:58:02;25.13;;;14.15;;
80272;SDS011;69574;45.328;9.598;2024-03-08T03:02:59;25.77;;;14.45;;
80272;SDS011;69574;45.328;9.598;2024-03-08T03:05:25;26.77;;;15.82;;
80272;SDS011;69574;45.328;9.598;2024-03-08T03:07:51;26.10;;;14.98;;
80272;SDS011;69574;45.328;9.598;2024-03-08T03:10:16;26.00;;;15.50;;
80272;SDS011;69574;45.328;9.598;2024-03-08T03:12:43;28.27;;;15.07;;
80272;SDS011;69574;45.328;9.598;2024-03-08T03:15:11;27.00;;;14.82;;
80272;SDS011;69574;45.328;9.598;2024-03-08T03:17:38;25.02;;;13.68;;
80272;SDS011;69574;45.328;9.598;2024-03-08T03:20:04;25.02;;;14.60;;
80272;SDS011;69574;45.328;9.598;2024-03-08T03:22:35;25.60;;;14.63;;
80272;SDS011;69574;45.328;9.598;2024-03-08T03:25:02;26.02;;;15.05;;
80272;SDS011;69574;45.328;9.598;2024-03-08T03:27:29;24.17;;;14.23;;
80272;SDS011;69574;45.328;9.598;2024-03-08T03:29:56;25.13;;;14.10;;
80272;SDS011;69574;45.328;9.598;2024-03-08T03:32:24;24.77;;;14.73;;
80272;SDS011;69574;45.328;9.598;2024-03-08T03:34:50;27.35;;;15.50;;
80272;SDS011;69574;45.328;9.598;2024-03-08T03:37:18;24.17;;;14.23;;
80272;SDS011;69574;45.328;9.598;2024-03-08T03:39:45;28.08;;;14.95;;
80272;SDS011;69574;45.328;9.598;2024-03-08T03:42:18;26.23;;;14.82;;
80272;SDS011;69574;45.328;9.598;2024-03-08T03:44:44;22.50;;;13.25;;
80272;SDS011;69574;45.328;9.598;2024-03-08T03:47:10;24.20;;;14.20;;
80272;SDS011;69574;45.328;9.598;2024-03-08T03:49:38;27.75;;;15.30;;
80272;SDS011;69574;45.328;9.598;2024-03-08T03:52:04;26.30;;;15.90;;
80272;SDS011;69574;45.328;9.598;2024-03-08T03:54:31;28.60;;;16.65;;
80272;SDS011;69574;45.328;9.598;2024-03-08T03:56:57;24.88;;;15.57;;
80272;SDS011;69574;45.328;9.598;2024-03-08T03:59:22;26.17;;;15.73;;
80272;SDS011;69574;45.328;9.598;2024-03-08T04:01:49;27.13;;;16.23;;
80272;SDS011;69574;45.328;9.598;2024-03-08T04:04:15;29.67;;;17.40;;
80272;SDS011;69574;45.328;9.598;2024-03-08T04:06:42;32.42;;;19.13;;
80272;SDS011;69574;45.328;9.598;2024-03-08T04:09:09;30.08;;;18.65;;
80272;SDS011;69574;45.328;9.598;2024-03-08T04:11:35;37.08;;;21.60;;
80272;SDS011;69574;45.328;9.598;2024-03-08T04:14:01;32.00;;;19.55;;
80272;SDS011;69574;45.328;9.598;2024-03-08T04:16:26;33.58;;;19.50;;
80272;SDS011;69574;45.328;9.598;2024-03-08T04:18:52;32.15;;;19.35;;
80272;SDS011;69574;45.328;9.598;2024-03-08T04:21:18;32.72;;;19.42;;
80272;SDS011;69574;45.328;9.598;2024-03-08T04:23:48;31.25;;;18.55;;
80272;SDS011;69574;45.328;9.598;2024-03-08T04:26:13;31.33;;;18.88;;
80272;SDS011;69574;45.328;9.598;2024-03-08T04:28:39;29.35;;;17.92;;
80272;SDS011;69574;45.328;9.598;2024-03-08T04:31:05;27.70;;;18.20;;
80272;SDS011;69574;45.328;9.598;2024-03-08T04:33:32;27.02;;;16.50;;
80272;SDS011;69574;45.328;9.598;2024-03-08T04:35:57;26.60;;;16.55;;
80272;SDS011;69574;45.328;9.598;2024-03-08T04:38:23;23.40;;;13.57;;
80272;SDS011;69574;45.328;9.598;2024-03-08T04:40:51;24.90;;;14.15;;
80272;SDS011;69574;45.328;9.598;2024-03-08T04:43:17;22.42;;;12.75;;
80272;SDS011;69574;45.328;9.598;2024-03-08T04:45:44;21.35;;;13.25;;
80272;SDS011;69574;45.328;9.598;2024-03-08T04:48:09;21.33;;;12.48;;
80272;SDS011;69574;45.328;9.598;2024-03-08T04:50:36;19.55;;;12.40;;
80272;SDS011;69574;45.328;9.598;2024-03-08T04:53:03;20.20;;;11.82;;
80272;SDS011;69574;45.328;9.598;2024-03-08T04:55:33;20.00;;;11.63;;
80272;SDS011;69574;45.328;9.598;2024-03-08T04:58:00;22.92;;;12.35;;
80272;SDS011;69574;45.328;9.598;2024-03-08T05:00:26;18.92;;;11.68;;
80272;SDS011;69574;45.328;9.598;2024-03-08T05:02:52;22.73;;;12.82;;
80272;SDS011;69574;45.328;9.598;2024-03-08T05:05:18;20.38;;;11.55;;
80272;SDS011;69574;45.328;9.598;2024-03-08T05:07:44;23.27;;;13.55;;
80272;SDS011;69574;45.328;9.598;2024-03-08T05:10:11;23.02;;;14.07;;
80272;SDS011;69574;45.328;9.598;2024-03-08T05:12:36;24.48;;;16.40;;
80272;SDS011;69574;45.328;9.598;2024-03-08T05:15:06;29.20;;;17.65;;
80272;SDS011;69574;45.328;9.598;2024-03-08T05:17:32;29.23;;;17.45;;
80272;SDS011;69574;45.328;9.598;2024-03-08T05:19:58;26.83;;;15.40;;
80272;SDS011;69574;45.328;9.598;2024-03-08T05:22:24;26.98;;;16.35;;
80272;SDS011;69574;45.328;9.598;2024-03-08T05:27:16;25.03;;;14.10;;
80272;SDS011;69574;45.328;9.598;2024-03-08T05:29:42;25.60;;;14.32;;
80272;SDS011;69574;45.328;9.598;2024-03-08T05:32:10;25.58;;;15.00;;
80272;SDS011;69574;45.328;9.598;2024-03-08T05:34:35;24.15;;;15.02;;
80272;SDS011;69574;45.328;9.598;2024-03-08T05:37:01;25.48;;;14.35;;
80272;SDS011;69574;45.328;9.598;2024-03-08T05:39:27;24.40;;;13.55;;
80272;SDS011;69574;45.328;9.598;2024-03-08T05:41:53;26.92;;;14.15;;
80272;SDS011;69574;45.328;9.598;2024-03-08T05:44:20;26.30;;;13.65;;
80272;SDS011;69574;45.328;9.598;2024-03-08T05:46:46;26.10;;;14.73;;
80272;SDS011;69574;45.328;9.598;2024-03-08T05:49:13;26.30;;;13.90;;
80272;SDS011;69574;45.328;9.598;2024-03-08T05:51:39;24.13;;;13.68;;
80272;SDS011;69574;45.328;9.598;2024-03-08T05:54:05;24.42;;;14.43;;
80272;SDS011;69574;45.328;9.598;2024-03-08T05:56:31;24.33;;;13.48;;
80272;SDS011;69574;45.328;9.598;2024-03-08T05:58:57;22.83;;;13.60;;
80272;SDS011;69574;45.328;9.598;2024-03-08T06:01:26;25.70;;;14.35;;
80272;SDS011;69574;45.328;9.598;2024-03-08T06:03:52;24.42;;;14.20;;
80272;SDS011;69574;45.328;9.598;2024-03-08T06:06:20;24.05;;;14.68;;
80272;SDS011;69574;45.328;9.598;2024-03-08T06:08:47;22.73;;;13.52;;
80272;SDS011;69574;45.328;9.598;2024-03-08T06:11:14;24.77;;;14.25;;
80272;SDS011;69574;45.328;9.598;2024-03-08T06:13:40;23.48;;;14.32;;
80272;SDS011;69574;45.328;9.598;2024-03-08T06:16:06;23.50;;;14.52;;
80272;SDS011;69574;45.328;9.598;2024-03-08T06:18:33;27.10;;;14.38;;
80272;SDS011;69574;45.328;9.598;2024-03-08T06:20:59;28.00;;;14.38;;
80272;SDS011;69574;45.328;9.598;2024-03-08T06:23:27;24.52;;;13.45;;
80272;SDS011;69574;45.328;9.598;2024-03-08T06:25:53;22.35;;;13.70;;
80272;SDS011;69574;45.328;9.598;2024-03-08T06:28:18;24.10;;;13.60;;
80272;SDS011;69574;45.328;9.598;2024-03-08T06:30:44;29.83;;;14.52;;
80272;SDS011;69574;45.328;9.598;2024-03-08T06:33:10;25.65;;;14.75;;
80272;SDS011;69574;45.328;9.598;2024-03-08T06:35:36;24.40;;;14.23;;
80272;SDS011;69574;45.328;9.598;2024-03-08T06:38:03;27.42;;;14.63;;
80272;SDS011;69574;45.328;9.598;2024-03-08T06:40:30;27.05;;;14.65;;
80272;SDS011;69574;45.328;9.598;2024-03-08T06:42:56;26.10;;;14.48;;
80272;SDS011;69574;45.328;9.598;2024-03-08T06:45:21;22.20;;;13.35;;
80272;SDS011;69574;45.328;9.598;2024-03-08T06:50:14;27.37;;;15.60;;
80272;SDS011;69574;45.328;9.598;2024-03-08T06:52:40;30.10;;;15.90;;
80272;SDS011;69574;45.328;9.598;2024-03-08T06:55:07;30.00;;;15.60;;
80272;SDS011;69574;45.328;9.598;2024-03-08T06:57:35;32.78;;;16.25;;
80272;SDS011;69574;45.328;9.598;2024-03-08T07:00:01;33.05;;;18.30;;
80272;SDS011;69574;45.328;9.598;2024-03-08T07:02:28;32.42;;;18.33;;
80272;SDS011;69574;45.328;9.598;2024-03-08T07:04:53;35.88;;;17.60;;
80272;SDS011;69574;45.328;9.598;2024-03-08T07:07:19;26.23;;;16.20;;
80272;SDS011;69574;45.328;9.598;2024-03-08T07:09:45;31.08;;;16.30;;
80272;SDS011;69574;45.328;9.598;2024-03-08T07:12:11;25.73;;;14.55;;
80272;SDS011;69574;45.328;9.598;2024-03-08T07:17:07;22.33;;;13.10;;
80272;SDS011;69574;45.328;9.598;2024-03-08T07:19:37;27.70;;;12.85;;
80272;SDS011;69574;45.328;9.598;2024-03-08T07:22:03;23.45;;;13.10;;
80272;SDS011;69574;45.328;9.598;2024-03-08T07:24:29;23.75;;;12.15;;
80272;SDS011;69574;45.328;9.598;2024-03-08T07:27:04;19.90;;;11.43;;
80272;SDS011;69574;45.328;9.598;2024-03-08T07:29:30;20.88;;;12.23;;
80272;SDS011;69574;45.328;9.598;2024-03-08T07:31:56;19.15;;;10.90;;
80272;SDS011;69574;45.328;9.598;2024-03-08T07:34:39;19.67;;;10.77;;
80272;SDS011;69574;45.328;9.598;2024-03-08T07:37:05;18.23;;;11.02;;
80272;SDS011;69574;45.328;9.598;2024-03-08T07:39:31;19.15;;;10.63;;
80272;SDS011;69574;45.328;9.598;2024-03-08T07:41:57;16.92;;;10.35;;
80272;SDS011;69574;45.328;9.598;2024-03-08T07:44:23;19.00;;;10.63;;
80272;SDS011;69574;45.328;9.598;2024-03-08T07:46:49;20.02;;;10.05;;
80272;SDS011;69574;45.328;9.598;2024-03-08T07:49:15;17.13;;;9.82;;
80272;SDS011;69574;45.328;9.598;2024-03-08T07:51:42;17.58;;;10.65;;
80272;SDS011;69574;45.328;9.598;2024-03-08T07:54:08;16.15;;;9.52;;
80272;SDS011;69574;45.328;9.598;2024-03-08T07:56:34;17.95;;;10.40;;
80272;SDS011;69574;45.328;9.598;2024-03-08T07:59:01;15.77;;;9.50;;
80272;SDS011;69574;45.328;9.598;2024-03-08T08:01:29;17.40;;;10.05;;
80272;SDS011;69574;45.328;9.598;2024-03-08T08:03:55;17.35;;;9.20;;
80272;SDS011;69574;45.328;9.598;2024-03-08T08:06:22;16.38;;;9.75;;
80272;SDS011;69574;45.328;9.598;2024-03-08T08:08:49;18.52;;;10.10;;
80272;SDS011;69574;45.328;9.598;2024-03-08T08:11:15;16.67;;;9.70;;
80272;SDS011;69574;45.328;9.598;2024-03-08T08:13:41;17.90;;;10.02;;
80272;SDS011;69574;45.328;9.598;2024-03-08T08:16:07;18.50;;;9.93;;
80272;SDS011;69574;45.328;9.598;2024-03-08T08:18:33;18.00;;;9.93;;
80272;SDS011;69574;45.328;9.598;2024-03-08T08:21:00;18.35;;;10.55;;
80272;SDS011;69574;45.328;9.598;2024-03-08T08:23:26;20.83;;;10.98;;
80272;SDS011;69574;45.328;9.598;2024-03-08T08:25:53;17.20;;;10.52;;
80272;SDS011;69574;45.328;9.598;2024-03-08T08:28:19;17.77;;;10.50;;
80272;SDS011;69574;45.328;9.598;2024-03-08T08:30:44;19.23;;;10.55;;
80272;SDS011;69574;45.328;9.598;2024-03-08T08:33:10;17.25;;;9.98;;
80272;SDS011;69574;45.328;9.598;2024-03-08T08:35:36;18.05;;;10.00;;
80272;SDS011;69574;45.328;9.598;2024-03-08T08:38:02;15.85;;;9.07;;
80272;SDS011;69574;45.328;9.598;2024-03-08T08:40:29;16.95;;;9.38;;
80272;SDS011;69574;45.328;9.598;2024-03-08T08:42:57;16.83;;;9.18;;
80272;SDS011;69574;45.328;9.598;2024-03-08T08:45:23;16.58;;;8.88;;
80272;SDS011;69574;45.328;9.598;2024-03-08T08:47:49;16.63;;;9.45;;
80272;SDS011;69574;45.328;9.598;2024-03-08T08:50:14;14.75;;;9.02;;
80272;SDS011;69574;45.328;9.598;2024-03-08T08:52:41;16.67;;;9.70;;
80272;SDS011;69574;45.328;9.598;2024-03-08T08:55:10;16.55;;;9.18;;
80272;SDS011;69574;45.328;9.598;2024-03-08T08:57:39;16.90;;;9.70;;
80272;SDS011;69574;45.328;9.598;2024-03-08T09:00:07;17.42;;;9.30;;
80272;SDS011;69574;45.328;9.598;2024-03-08T09:02:34;16.23;;;10.07;;
80272;SDS011;69574;45.328;9.598;2024-03-08T09:04:59;16.58;;;9.52;;
80272;SDS011;69574;45.328;9.598;2024-03-08T09:07:26;17.63;;;9.35;;
80272;SDS011;69574;45.328;9.598;2024-03-08T09:09:53;17.17;;;8.88;;
80272;SDS011;69574;45.328;9.598;2024-03-08T09:12:22;13.18;;;8.00;;
80272;SDS011;69574;45.328;9.598;2024-03-08T09:14:48;15.35;;;9.20;;
80272;SDS011;69574;45.328;9.598;2024-03-08T09:17:16;14.95;;;8.88;;
80272;SDS011;69574;45.328;9.598;2024-03-08T09:19:46;13.90;;;8.35;;
80272;SDS011;69574;45.328;9.598;2024-03-08T09:22:12;18.10;;;9.13;;
80272;SDS011;69574;45.328;9.598;2024-03-08T09:24:38;15.65;;;9.63;;
80272;SDS011;69574;45.328;9.598;2024-03-08T09:27:04;16.15;;;9.05;;
80272;SDS011;69574;45.328;9.598;2024-03-08T09:29:30;14.63;;;8.85;;
80272;SDS011;69574;45.328;9.598;2024-03-08T09:31:56;14.25;;;8.75;;
80272;SDS011;69574;45.328;9.598;2024-03-08T09:34:23;15.32;;;9.25;;
80272;SDS011;69574;45.328;9.598;2024-03-08T09:36:49;13.77;;;8.50;;
80272;SDS011;69574;45.328;9.598;2024-03-08T09:39:17;15.13;;;8.50;;
80272;SDS011;69574;45.328;9.598;2024-03-08T09:41:45;15.02;;;9.05;;
80272;SDS011;69574;45.328;9.598;2024-03-08T09:44:13;15.02;;;9.40;;
80272;SDS011;69574;45.328;9.598;2024-03-08T09:46:39;13.75;;;8.70;;
80272;SDS011;69574;45.328;9.598;2024-03-08T09:49:05;14.27;;;8.40;;
80272;SDS011;69574;45.328;9.598;2024-03-08T09:51:33;14.88;;;8.45;;
80272;SDS011;69574;45.328;9.598;2024-03-08T09:54:00;15.43;;;8.63;;
80272;SDS011;69574;45.328;9.598;2024-03-08T09:56:26;14.73;;;8.77;;
80272;SDS011;69574;45.328;9.598;2024-03-08T09:58:53;14.73;;;8.40;;
80272;SDS011;69574;45.328;9.598;2024-03-08T10:01:53;15.10;;;8.27;;
80272;SDS011;69574;45.328;9.598;2024-03-08T10:04:21;13.48;;;8.18;;
80272;SDS011;69574;45.328;9.598;2024-03-08T10:06:49;13.23;;;8.05;;
80272;SDS011;69574;45.328;9.598;2024-03-08T10:09:14;13.18;;;8.27;;
80272;SDS011;69574;45.328;9.598;2024-03-08T10:11:42;13.88;;;7.25;;
80272;SDS011;69574;45.328;9.598;2024-03-08T10:14:07;14.80;;;7.47;;
80272;SDS011;69574;45.328;9.598;2024-03-08T10:16:34;12.90;;;7.97;;
80272;SDS011;69574;45.328;9.598;2024-03-08T10:19:00;12.40;;;7.28;;
80272;SDS011;69574;45.328;9.598;2024-03-08T10:21:26;12.73;;;7.45;;
80272;SDS011;69574;45.328;9.598;2024-03-08T10:23:56;14.48;;;8.10;;
80272;SDS011;69574;45.328;9.598;2024-03-08T10:26:23;12.85;;;8.07;;
80272;SDS011;69574;45.328;9.598;2024-03-08T10:28:50;12.60;;;7.95;;
80272;SDS011;69574;45.328;9.598;2024-03-08T10:31:16;12.85;;;7.72;;
80272;SDS011;69574;45.328;9.598;2024-03-08T10:33:42;12.82;;;7.63;;
80272;SDS011;69574;45.328;9.598;2024-03-08T10:36:09;14.13;;;7.90;;
80272;SDS011;69574;45.328;9.598;2024-03-08T10:38:36;13.55;;;7.38;;
80272;SDS011;69574;45.328;9.598;2024-03-08T10:41:03;14.80;;;7.63;;
80272;SDS011;69574;45.328;9.598;2024-03-08T10:43:32;12.07;;;7.05;;
80272;SDS011;69574;45.328;9.598;2024-03-08T10:46:06;12.73;;;7.35;;
80272;SDS011;69574;45.328;9.598;2024-03-08T10:48:36;12.85;;;8.30;;
80272;SDS011;69574;45.328;9.598;2024-03-08T10:51:06;13.32;;;7.95;;
80272;SDS011;69574;45.328;9.598;2024-03-08T10:53:32;12.63;;;7.25;;
80272;SDS011;69574;45.328;9.598;2024-03-08T10:55:59;12.73;;;7.72;;
80272;SDS011;69574;45.328;9.598;2024-03-08T10:58:28;11.80;;;7.25;;
80272;SDS011;69574;45.328;9.598;2024-03-08T11:00:54;10.50;;;7.30;;
80272;SDS011;69574;45.328;9.598;2024-03-08T11:03:43;13.50;;;8.05;;
80272;SDS011;69574;45.328;9.598;2024-03-08T11:06:11;13.52;;;7.75;;
80272;SDS011;69574;45.328;9.598;2024-03-08T11:08:40;11.75;;;7.82;;
80272;SDS011;69574;45.328;9.598;2024-03-08T11:11:06;13.90;;;8.23;;
80272;SDS011;69574;45.328;9.598;2024-03-08T11:13:50;12.80;;;7.95;;
80272;SDS011;69574;45.328;9.598;2024-03-08T11:16:37;12.25;;;7.65;;
80272;SDS011;69574;45.328;9.598;2024-03-08T11:19:06;13.85;;;7.80;;
80272;SDS011;69574;45.328;9.598;2024-03-08T11:21:35;13.10;;;8.00;;
80272;SDS011;69574;45.328;9.598;2024-03-08T11:24:06;13.25;;;8.00;;
80272;SDS011;69574;45.328;9.598;2024-03-08T11:26:33;13.48;;;7.95;;
80272;SDS011;69574;45.328;9.598;2024-03-08T11:31:42;13.18;;;7.95;;
80272;SDS011;69574;45.328;9.598;2024-03-08T11:34:14;12.80;;;8.05;;
80272;SDS011;69574;45.328;9.598;2024-03-08T11:36:41;11.82;;;8.02;;
80272;SDS011;69574;45.328;9.598;2024-03-08T11:39:07;14.18;;;7.80;;
80272;SDS011;69574;45.328;9.598;2024-03-08T11:41:40;13.73;;;8.23;;
80272;SDS011;69574;45.328;9.598;2024-03-08T11:44:06;12.77;;;7.60;;
80272;SDS011;69574;45.328;9.598;2024-03-08T11:46:33;12.95;;;8.02;;
80272;SDS011;69574;45.328;9.598;2024-03-08T11:49:01;12.52;;;8.25;;
80272;SDS011;69574;45.328;9.598;2024-03-08T11:51:28;14.30;;;8.18;;
80272;SDS011;69574;45.328;9.598;2024-03-08T11:53:55;11.68;;;7.60;;
80272;SDS011;69574;45.328;9.598;2024-03-08T11:56:21;14.05;;;8.07;;
80272;SDS011;69574;45.328;9.598;2024-03-08T11:58:52;14.48;;;8.15;;
80272;SDS011;69574;45.328;9.598;2024-03-08T12:01:18;15.88;;;9.02;;
80272;SDS011;69574;45.328;9.598;2024-03-08T12:03:44;15.02;;;8.55;;
80272;SDS011;69574;45.328;9.598;2024-03-08T12:06:19;12.40;;;8.07;;
80272;SDS011;69574;45.328;9.598;2024-03-08T12:08:45;16.13;;;8.77;;
80272;SDS011;69574;45.328;9.598;2024-03-08T12:11:14;12.20;;;7.97;;
80272;SDS011;69574;45.328;9.598;2024-03-08T12:13:41;15.15;;;9.00;;
80272;SDS011;69574;45.328;9.598;2024-03-08T12:16:06;16.50;;;9.25;;
80272;SDS011;69574;45.328;9.598;2024-03-08T12:18:33;13.38;;;8.02;;
80272;SDS011;69574;45.328;9.598;2024-03-08T12:21:06;13.65;;;8.98;;
80272;SDS011;69574;45.328;9.598;2024-03-08T12:26:32;12.65;;;7.70;;
80272;SDS011;69574;45.328;9.598;2024-03-08T12:31:39;15.10;;;8.30;;
80272;SDS011;69574;45.328;9.598;2024-03-08T12:34:05;19.77;;;8.27;;
80272;SDS011;69574;45.328;9.598;2024-03-08T12:36:30;12.30;;;8.02;;
80272;SDS011;69574;45.328;9.598;2024-03-08T12:38:56;13.48;;;8.32;;
80272;SDS011;69574;45.328;9.598;2024-03-08T12:41:22;13.18;;;8.40;;
80272;SDS011;69574;45.328;9.598;2024-03-08T12:43:50;15.13;;;8.43;;
80272;SDS011;69574;45.328;9.598;2024-03-08T12:46:15;14.63;;;9.18;;
80272;SDS011;69574;45.328;9.598;2024-03-08T12:48:41;15.75;;;9.10;;
80272;SDS011;69574;45.328;9.598;2024-03-08T12:51:11;24.27;;;10.05;;
80272;SDS011;69574;45.328;9.598;2024-03-08T12:53:36;18.40;;;9.48;;
80272;SDS011;69574;45.328;9.598;2024-03-08T12:56:02;15.20;;;9.70;;
80272;SDS011;69574;45.328;9.598;2024-03-08T12:58:30;15.20;;;9.60;;
80272;SDS011;69574;45.328;9.598;2024-03-08T13:00:58;13.95;;;9.23;;
80272;SDS011;69574;45.328;9.598;2024-03-08T13:03:24;15.45;;;8.98;;
80272;SDS011;69574;45.328;9.598;2024-03-08T13:05:50;16.65;;;9.73;;
80272;SDS011;69574;45.328;9.598;2024-03-08T13:08:16;12.80;;;8.35;;
80272;SDS011;69574;45.328;9.598;2024-03-08T13:10:43;16.10;;;8.90;;
80272;SDS011;69574;45.328;9.598;2024-03-08T13:13:09;14.63;;;9.23;;
80272;SDS011;69574;45.328;9.598;2024-03-08T13:15:35;13.27;;;8.68;;
80272;SDS011;69574;45.328;9.598;2024-03-08T13:18:02;14.15;;;8.07;;
80272;SDS011;69574;45.328;9.598;2024-03-08T13:20:28;14.32;;;8.55;;
80272;SDS011;69574;45.328;9.598;2024-03-08T13:22:55;14.45;;;8.75;;
80272;SDS011;69574;45.328;9.598;2024-03-08T13:25:21;15.73;;;8.60;;
80272;SDS011;69574;45.328;9.598;2024-03-08T13:27:49;16.13;;;8.73;;
80272;SDS011;69574;45.328;9.598;2024-03-08T13:30:14;15.75;;;9.38;;
80272;SDS011;69574;45.328;9.598;2024-03-08T13:32:43;13.57;;;8.98;;
80272;SDS011;69574;45.328;9.598;2024-03-08T13:35:13;17.27;;;9.20;;
80272;SDS011;69574;45.328;9.598;2024-03-08T13:37:39;14.82;;;9.27;;
80272;SDS011;69574;45.328;9.598;2024-03-08T13:40:05;12.82;;;8.65;;
80272;SDS011;69574;45.328;9.598;2024-03-08T13:42:31;13.30;;;8.43;;
80272;SDS011;69574;45.328;9.598;2024-03-08T13:44:57;14.85;;;8.48;;
80272;SDS011;69574;45.328;9.598;2024-03-08T13:47:22;15.45;;;9.13;;
80272;SDS011;69574;45.328;9.598;2024-03-08T13:49:49;12.52;;;8.15;;
80272;SDS011;69574;45.328;9.598;2024-03-08T13:52:17;14.63;;;9.05;;
80272;SDS011;69574;45.328;9.598;2024-03-08T13:54:44;13.32;;;8.43;;
80272;SDS011;69574;45.328;9.598;2024-03-08T13:57:10;14.43;;;8.77;;
80272;SDS011;69574;45.328;9.598;2024-03-08T13:59:36;14.05;;;8.98;;
80272;SDS011;69574;45.328;9.598;2024-03-08T14:04:28;14.30;;;8.63;;
80272;SDS011;69574;45.328;9.598;2024-03-08T14:06:57;13.57;;;7.68;;
80272;SDS011;69574;45.328;9.598;2024-03-08T14:09:26;13.50;;;8.25;;
80272;SDS011;69574;45.328;9.598;2024-03-08T14:11:55;13.27;;;8.05;;
80272;SDS011;69574;45.328;9.598;2024-03-08T14:14:21;12.93;;;8.13;;
80272;SDS011;69574;45.328;9.598;2024-03-08T14:16:48;12.13;;;7.90;;
80272;SDS011;69574;45.328;9.598;2024-03-08T14:19:14;14.30;;;7.72;;
80272;SDS011;69574;45.328;9.598;2024-03-08T14:21:40;13.65;;;8.52;;
80272;SDS011;69574;45.328;9.598;2024-03-08T14:24:07;13.13;;;7.88;;
80272;SDS011;69574;45.328;9.598;2024-03-08T14:26:34;13.15;;;7.75;;
80272;SDS011;69574;45.328;9.598;2024-03-08T14:29:03;13.63;;;7.80;;
80272;SDS011;69574;45.328;9.598;2024-03-08T14:31:30;13.75;;;8.10;;
80272;SDS011;69574;45.328;9.598;2024-03-08T14:33:56;13.63;;;7.82;;
80272;SDS011;69574;45.328;9.598;2024-03-08T14:36:22;13.93;;;8.23;;
80272;SDS011;69574;45.328;9.598;2024-03-08T14:38:49;14.70;;;8.18;;
80272;SDS011;69574;45.328;9.598;2024-03-08T14:41:14;16.85;;;7.90;;
80272;SDS011;69574;45.328;9.598;2024-03-08T14:43:43;17.60;;;8.20;;
80272;SDS011;69574;45.328;9.598;2024-03-08T14:46:12;13.65;;;8.00;;
80272;SDS011;69574;45.328;9.598;2024-03-08T14:48:48;14.00;;;8.40;;
80272;SDS011;69574;45.328;9.598;2024-03-08T14:51:14;13.07;;;7.53;;